首页
METAR-TAF:

METAR-TAF

机场 :

凱恩斯國際機場

凱恩斯, 澳大利亚

纬度: 16-53S, 经度: 145-45E, 海拔: 3米

当前天气观测

该预报发布于21分钟前的05:30 UTC
风速11节,风向东转东南
温度 30°C
湿度 55%
气压 1012 hPa
能见度10公里或以上
少量云层高于3000英尺
散云层高于5000英尺

METAR: YBCS 190530Z 11011KT 9999 FEW030 SCT050 30/20 Q1012 NOSIG

时间: 15:51 (05:51 UTC)

预报

该预报发布于50分钟前的05:01 UTC
预报有效从19日的 06点(UTC)到 20日的 06点(UTC)
风速14节,风向
能见度10公里或以上
散云层高于3500英尺
从 19日的 0900点(UTC)
风速7节,风向东南
能见度10公里或以上
少量云层高于2000英尺
多云层高于3500英尺
从 20日的 0000点(UTC)
风速14节,风向
能见度10公里或以上
散云层高于3500英尺

TAF: YBCS 190501Z 1906/2006 09014KT 9999 SCT035 FM190900 13007KT 9999 FEW020 BKN035 FM200000 09014KT 9999 SCT035

超过4000个机场的气象观测和天气预报(METAR&TAF报告)。

可查询的气象台以黄色和红色小点在地图上表示。

将鼠标移到小点上方,可查看气象台名称。

然后点击查看天气观测和预报。

如需切换地图:点击带黑十字的绿色按钮放大地图;点击带横线的绿色按钮缩小地图;或者点击绿色箭头查看邻近地区的地图。


METAR-TAF: